sensor_id;sensor_type;location;lat;lon;timestamp;temperature;humidity
23591;DHT22;11973;52.098;7.582;2023-09-18T04:15:49;19.00;99.70
23591;DHT22;11973;52.098;7.582;2023-09-18T04:18:14;19.00;99.70
23591;DHT22;11973;52.098;7.582;2023-09-18T04:20:40;19.00;99.80
23591;DHT22;11973;52.098;7.582;2023-09-18T04:23:21;19.00;99.80
23591;DHT22;11973;52.098;7.582;2023-09-18T04:25:47;19.00;99.90
23591;DHT22;11973;52.098;7.582;2023-09-18T04:28:15;19.00;99.80
23591;DHT22;11973;52.098;7.582;2023-09-18T04:30:41;19.00;99.80
23591;DHT22;11973;52.098;7.582;2023-09-18T04:33:07;19.00;99.80
23591;DHT22;11973;52.098;7.582;2023-09-18T04:35:32;19.00;99.90
23591;DHT22;11973;52.098;7.582;2023-09-18T04:37:59;19.00;99.90
23591;DHT22;11973;52.098;7.582;2023-09-18T04:40:25;19.00;99.90
23591;DHT22;11973;52.098;7.582;2023-09-18T04:42:56;19.00;99.90
23591;DHT22;11973;52.098;7.582;2023-09-18T04:45:27;19.00;99.90
23591;DHT22;11973;52.098;7.582;2023-09-18T04:47:53;19.00;99.90
23591;DHT22;11973;52.098;7.582;2023-09-18T04:50:19;19.00;99.90
23591;DHT22;11973;52.098;7.582;2023-09-18T04:52:45;19.00;99.90
23591;DHT22;11973;52.098;7.582;2023-09-18T04:55:14;19.00;99.90
23591;DHT22;11973;52.098;7.582;2023-09-18T04:57:41;19.00;99.90
23591;DHT22;11973;52.098;7.582;2023-09-18T05:00:08;19.00;99.90
23591;DHT22;11973;52.098;7.582;2023-09-18T05:02:40;19.00;99.90
23591;DHT22;11973;52.098;7.582;2023-09-18T05:05:06;18.90;99.90
23591;DHT22;11973;52.098;7.582;2023-09-18T05:07:35;19.00;99.90
23591;DHT22;11973;52.098;7.582;2023-09-18T05:10:00;19.10;99.90
23591;DHT22;11973;52.098;7.582;2023-09-18T05:12:26;19.10;99.90
23591;DHT22;11973;52.098;7.582;2023-09-18T05:14:52;19.10;99.90
23591;DHT22;11973;52.098;7.582;2023-09-18T05:17:18;19.10;99.90
23591;DHT22;11973;52.098;7.582;2023-09-18T05:19:44;19.10;99.90
23591;DHT22;11973;52.098;7.582;2023-09-18T05:22:10;19.10;99.90
23591;DHT22;11973;52.098;7.582;2023-09-18T05:24:59;19.10;99.90
23591;DHT22;11973;52.098;7.582;2023-09-18T05:27:25;19.10;99.90
23591;DHT22;11973;52.098;7.582;2023-09-18T05:29:51;19.10;99.90
23591;DHT22;11973;52.098;7.582;2023-09-18T05:32:17;19.10;99.90
23591;DHT22;11973;52.098;7.582;2023-09-18T05:34:43;19.10;99.90
23591;DHT22;11973;52.098;7.582;2023-09-18T05:37:08;19.10;99.90
23591;DHT22;11973;52.098;7.582;2023-09-18T05:39:34;19.10;99.90
23591;DHT22;11973;52.098;7.582;2023-09-18T05:42:00;19.10;99.90
23591;DHT22;11973;52.098;7.582;2023-09-18T05:44:26;19.10;99.90
23591;DHT22;11973;52.098;7.582;2023-09-18T05:46:51;19.10;99.90
23591;DHT22;11973;52.098;7.582;2023-09-18T05:49:17;19.10;99.90
23591;DHT22;11973;52.098;7.582;2023-09-18T05:51:43;19.20;99.90
23591;DHT22;11973;52.098;7.582;2023-09-18T05:54:09;19.20;99.90
23591;DHT22;11973;52.098;7.582;2023-09-18T05:56:35;19.20;99.90
23591;DHT22;11973;52.098;7.582;2023-09-18T05:59:00;19.20;99.90
23591;DHT22;11973;52.098;7.582;2023-09-18T06:01:26;19.20;99.90
23591;DHT22;11973;52.098;7.582;2023-09-18T06:03:52;19.30;99.90
23591;DHT22;11973;52.098;7.582;2023-09-18T06:06:18;19.30;99.90
23591;DHT22;11973;52.098;7.582;2023-09-18T06:08:44;19.30;99.90
23591;DHT22;11973;52.098;7.582;2023-09-18T06:11:09;19.30;99.90
23591;DHT22;11973;52.098;7.582;2023-09-18T06:13:35;19.40;99.90
23591;DHT22;11973;52.098;7.582;2023-09-18T06:16:01;19.40;99.90
23591;DHT22;11973;52.098;7.582;2023-09-18T06:18:32;19.40;99.90
23591;DHT22;11973;52.098;7.582;2023-09-18T06:20:58;19.50;99.90
23591;DHT22;11973;52.098;7.582;2023-09-18T06:23:24;19.50;99.90
23591;DHT22;11973;52.098;7.582;2023-09-18T06:25:49;19.50;99.90
23591;DHT22;11973;52.098;7.582;2023-09-18T06:28:22;19.60;99.90
23591;DHT22;11973;52.098;7.582;2023-09-18T06:30:48;19.60;99.90
23591;DHT22;11973;52.098;7.582;2023-09-18T06:33:14;19.70;99.90
23591;DHT22;11973;52.098;7.582;2023-09-18T06:35:40;19.70;99.90
23591;DHT22;11973;52.098;7.582;2023-09-18T06:38:05;19.70;99.90
23591;DHT22;11973;52.098;7.582;2023-09-18T06:40:32;19.80;99.90
23591;DHT22;11973;52.098;7.582;2023-09-18T06:43:01;19.90;99.90
23591;DHT22;11973;52.098;7.582;2023-09-18T06:45:27;19.90;99.90
23591;DHT22;11973;52.098;7.582;2023-09-18T06:47:55;20.00;99.90
23591;DHT22;11973;52.098;7.582;2023-09-18T06:50:21;20.10;99.90
23591;DHT22;11973;52.098;7.582;2023-09-18T06:52:46;20.10;99.90
23591;DHT22;11973;52.098;7.582;2023-09-18T06:55:13;20.20;99.90
23591;DHT22;11973;52.098;7.582;2023-09-18T06:57:39;20.20;99.90
23591;DHT22;11973;52.098;7.582;2023-09-18T07:00:07;20.30;99.90
23591;DHT22;11973;52.098;7.582;2023-09-18T07:02:32;20.30;99.90
23591;DHT22;11973;52.098;7.582;2023-09-18T07:04:58;20.40;99.90
23591;DHT22;11973;52.098;7.582;2023-09-18T07:07:24;20.50;99.90
23591;DHT22;11973;52.098;7.582;2023-09-18T07:09:54;20.50;99.90
23591;DHT22;11973;52.098;7.582;2023-09-18T07:12:19;20.60;99.90
23591;DHT22;11973;52.098;7.582;2023-09-18T07:14:46;20.60;99.90
23591;DHT22;11973;52.098;7.582;2023-09-18T07:17:12;20.60;99.90
23591;DHT22;11973;52.098;7.582;2023-09-18T07:19:38;20.70;99.90
23591;DHT22;11973;52.098;7.582;2023-09-18T07:22:04;20.80;99.90
23591;DHT22;11973;52.098;7.582;2023-09-18T07:24:30;20.90;99.90
23591;DHT22;11973;52.098;7.582;2023-09-18T07:26:55;20.90;99.90
23591;DHT22;11973;52.098;7.582;2023-09-18T07:29:23;21.00;99.90
23591;DHT22;11973;52.098;7.582;2023-09-18T07:31:51;21.00;99.90
23591;DHT22;11973;52.098;7.582;2023-09-18T07:34:17;21.10;99.90
23591;DHT22;11973;52.098;7.582;2023-09-18T07:36:43;21.10;99.90
23591;DHT22;11973;52.098;7.582;2023-09-18T07:39:10;21.20;99.90
23591;DHT22;11973;52.098;7.582;2023-09-18T07:41:37;21.30;99.90
23591;DHT22;11973;52.098;7.582;2023-09-18T07:44:03;21.30;99.90
23591;DHT22;11973;52.098;7.582;2023-09-18T07:46:29;21.40;99.90
23591;DHT22;11973;52.098;7.582;2023-09-18T07:48:55;21.40;99.90
23591;DHT22;11973;52.098;7.582;2023-09-18T07:51:21;21.50;99.90
23591;DHT22;11973;52.098;7.582;2023-09-18T07:53:47;21.40;99.90
23591;DHT22;11973;52.098;7.582;2023-09-18T07:56:13;21.50;99.90
23591;DHT22;11973;52.098;7.582;2023-09-18T07:58:39;21.50;99.90
23591;DHT22;11973;52.098;7.582;2023-09-18T08:01:06;21.60;99.90
23591;DHT22;11973;52.098;7.582;2023-09-18T08:03:34;21.60;99.90
23591;DHT22;11973;52.098;7.582;2023-09-18T08:06:00;21.80;99.90
23591;DHT22;11973;52.098;7.582;2023-09-18T08:08:25;21.80;99.90
23591;DHT22;11973;52.098;7.582;2023-09-18T08:10:52;21.90;99.90
23591;DHT22;11973;52.098;7.582;2023-09-18T08:13:19;22.00;99.90
23591;DHT22;11973;52.098;7.582;2023-09-18T08:15:48;22.20;99.90
23591;DHT22;11973;52.098;7.582;2023-09-18T08:18:14;22.20;99.90
23591;DHT22;11973;52.098;7.582;2023-09-18T08:20:43;22.30;99.90
23591;DHT22;11973;52.098;7.582;2023-09-18T08:23:12;22.40;99.90
23591;DHT22;11973;52.098;7.582;2023-09-18T08:25:38;22.50;99.90
23591;DHT22;11973;52.098;7.582;2023-09-18T08:28:06;22.60;99.90
23591;DHT22;11973;52.098;7.582;2023-09-18T08:30:32;22.60;99.90
23591;DHT22;11973;52.098;7.582;2023-09-18T08:32:58;22.70;99.90
23591;DHT22;11973;52.098;7.582;2023-09-18T08:35:23;22.80;99.90
23591;DHT22;11973;52.098;7.582;2023-09-18T08:37:54;22.70;99.70
23591;DHT22;11973;52.098;7.582;2023-09-18T08:40:20;22.70;99.60
23591;DHT22;11973;52.098;7.582;2023-09-18T08:42:47;22.70;99.60
23591;DHT22;11973;52.098;7.582;2023-09-18T08:45:23;22.60;99.40
23591;DHT22;11973;52.098;7.582;2023-09-18T08:47:52;22.60;99.30
23591;DHT22;11973;52.098;7.582;2023-09-18T08:50:19;22.50;99.30
23591;DHT22;11973;52.098;7.582;2023-09-18T08:52:47;22.50;99.20
23591;DHT22;11973;52.098;7.582;2023-09-18T08:55:13;22.40;99.10
23591;DHT22;11973;52.098;7.582;2023-09-18T08:57:39;22.30;98.90
23591;DHT22;11973;52.098;7.582;2023-09-18T09:00:07;22.10;98.80
23591;DHT22;11973;52.098;7.582;2023-09-18T09:02:34;22.10;98.80
23591;DHT22;11973;52.098;7.582;2023-09-18T09:05:00;22.00;98.70
23591;DHT22;11973;52.098;7.582;2023-09-18T09:07:26;21.90;98.60
23591;DHT22;11973;52.098;7.582;2023-09-18T09:09:54;21.90;98.60
23591;DHT22;11973;52.098;7.582;2023-09-18T09:12:57;21.90;98.60
23591;DHT22;11973;52.098;7.582;2023-09-18T09:15:34;21.90;98.40
23591;DHT22;11973;52.098;7.582;2023-09-18T09:18:11;21.90;98.50
23591;DHT22;11973;52.098;7.582;2023-09-18T09:20:37;22.00;98.40
23591;DHT22;11973;52.098;7.582;2023-09-18T09:23:05;22.10;98.30
23591;DHT22;11973;52.098;7.582;2023-09-18T09:25:33;22.20;98.60
23591;DHT22;11973;52.098;7.582;2023-09-18T09:28:04;22.40;98.20
23591;DHT22;11973;52.098;7.582;2023-09-18T09:30:31;22.50;98.00
23591;DHT22;11973;52.098;7.582;2023-09-18T09:32:58;22.70;98.40
23591;DHT22;11973;52.098;7.582;2023-09-18T09:35:29;22.80;97.90
23591;DHT22;11973;52.098;7.582;2023-09-18T09:38:01;22.80;97.70
23591;DHT22;11973;52.098;7.582;2023-09-18T09:40:29;22.80;97.50
23591;DHT22;11973;52.098;7.582;2023-09-18T09:42:56;22.90;97.50
23591;DHT22;11973;52.098;7.582;2023-09-18T09:45:31;23.00;97.40
23591;DHT22;11973;52.098;7.582;2023-09-18T09:48:02;23.00;97.20
23591;DHT22;11973;52.098;7.582;2023-09-18T09:50:30;23.00;97.10
23591;DHT22;11973;52.098;7.582;2023-09-18T09:52:57;23.10;97.10
23591;DHT22;11973;52.098;7.582;2023-09-18T09:55:29;23.20;97.30
23591;DHT22;11973;52.098;7.582;2023-09-18T10:00:48;23.30;96.70
23591;DHT22;11973;52.098;7.582;2023-09-18T10:03:19;23.30;96.40
23591;DHT22;11973;52.098;7.582;2023-09-18T10:05:51;23.20;96.50
23591;DHT22;11973;52.098;7.582;2023-09-18T10:08:25;23.20;96.40
23591;DHT22;11973;52.098;7.582;2023-09-18T10:10:54;23.20;96.30
23591;DHT22;11973;52.098;7.582;2023-09-18T10:13:32;23.30;96.30
23591;DHT22;11973;52.098;7.582;2023-09-18T10:15:59;23.30;96.10
23591;DHT22;11973;52.098;7.582;2023-09-18T10:18:42;23.30;96.10
23591;DHT22;11973;52.098;7.582;2023-09-18T10:24:24;23.40;95.70
23591;DHT22;11973;52.098;7.582;2023-09-18T10:27:00;23.50;95.70
23591;DHT22;11973;52.098;7.582;2023-09-18T10:29:27;23.60;95.70
23591;DHT22;11973;52.098;7.582;2023-09-18T10:31:54;23.80;95.60
23591;DHT22;11973;52.098;7.582;2023-09-18T10:34:21;23.80;95.70
23591;DHT22;11973;52.098;7.582;2023-09-18T10:36:48;23.90;95.20
23591;DHT22;11973;52.098;7.582;2023-09-18T10:39:15;24.00;95.20
23591;DHT22;11973;52.098;7.582;2023-09-18T10:41:51;24.00;95.10
23591;DHT22;11973;52.098;7.582;2023-09-18T10:44:18;24.10;94.80
23591;DHT22;11973;52.098;7.582;2023-09-18T10:46:48;24.10;94.90
23591;DHT22;11973;52.098;7.582;2023-09-18T10:49:18;24.10;94.60
23591;DHT22;11973;52.098;7.582;2023-09-18T10:51:47;24.10;94.60
23591;DHT22;11973;52.098;7.582;2023-09-18T10:54:20;24.10;94.50
23591;DHT22;11973;52.098;7.582;2023-09-18T10:56:46;24.20;94.40
23591;DHT22;11973;52.098;7.582;2023-09-18T10:59:14;24.20;94.40
23591;DHT22;11973;52.098;7.582;2023-09-18T11:01:40;24.30;94.20
23591;DHT22;11973;52.098;7.582;2023-09-18T11:04:07;24.30;94.10
23591;DHT22;11973;52.098;7.582;2023-09-18T11:07:00;24.40;93.90
23591;DHT22;11973;52.098;7.582;2023-09-18T11:09:28;24.40;93.60
23591;DHT22;11973;52.098;7.582;2023-09-18T11:12:04;24.50;93.70
23591;DHT22;11973;52.098;7.582;2023-09-18T11:14:57;24.50;93.50
23591;DHT22;11973;52.098;7.582;2023-09-18T11:20:28;24.60;93.10
23591;DHT22;11973;52.098;7.582;2023-09-18T11:25:40;24.50;92.70
23591;DHT22;11973;52.098;7.582;2023-09-18T11:28:09;24.30;92.60
23591;DHT22;11973;52.098;7.582;2023-09-18T11:30:51;24.30;92.60
23591;DHT22;11973;52.098;7.582;2023-09-18T11:33:37;24.20;92.40
23591;DHT22;11973;52.098;7.582;2023-09-18T11:36:07;24.20;92.20
23591;DHT22;11973;52.098;7.582;2023-09-18T11:38:57;24.10;92.20
23591;DHT22;11973;52.098;7.582;2023-09-18T11:41:26;24.10;91.90
23591;DHT22;11973;52.098;7.582;2023-09-18T11:44:05;24.10;92.00
23591;DHT22;11973;52.098;7.582;2023-09-18T11:46:48;24.00;92.20
23591;DHT22;11973;52.098;7.582;2023-09-18T11:49:24;24.10;92.10
23591;DHT22;11973;52.098;7.582;2023-09-18T11:51:54;24.10;91.60
23591;DHT22;11973;52.098;7.582;2023-09-18T11:54:20;24.10;91.60
23591;DHT22;11973;52.098;7.582;2023-09-18T11:56:46;24.10;91.50
23591;DHT22;11973;52.098;7.582;2023-09-18T11:59:12;24.10;91.40
23591;DHT22;11973;52.098;7.582;2023-09-18T12:01:39;24.10;91.20
23591;DHT22;11973;52.098;7.582;2023-09-18T12:04:12;24.10;91.20
23591;DHT22;11973;52.098;7.582;2023-09-18T12:06:41;24.20;91.20
23591;DHT22;11973;52.098;7.582;2023-09-18T12:09:08;24.20;91.10
23591;DHT22;11973;52.098;7.582;2023-09-18T12:11:41;24.20;91.00
23591;DHT22;11973;52.098;7.582;2023-09-18T12:14:07;24.20;90.90
23591;DHT22;11973;52.098;7.582;2023-09-18T12:16:40;24.40;90.90
23591;DHT22;11973;52.098;7.582;2023-09-18T12:19:05;24.50;90.90
23591;DHT22;11973;52.098;7.582;2023-09-18T12:21:46;24.60;90.90
23591;DHT22;11973;52.098;7.582;2023-09-18T12:24:25;24.70;90.70
23591;DHT22;11973;52.098;7.582;2023-09-18T12:26:52;24.70;90.70
23591;DHT22;11973;52.098;7.582;2023-09-18T12:29:19;24.70;90.60
23591;DHT22;11973;52.098;7.582;2023-09-18T12:31:44;24.80;90.50
23591;DHT22;11973;52.098;7.582;2023-09-18T12:34:21;24.90;90.50
23591;DHT22;11973;52.098;7.582;2023-09-18T12:36:50;25.00;90.30
23591;DHT22;11973;52.098;7.582;2023-09-18T12:39:17;25.10;90.30
23591;DHT22;11973;52.098;7.582;2023-09-18T12:41:49;25.10;90.10
23591;DHT22;11973;52.098;7.582;2023-09-18T12:44:16;25.20;89.90
23591;DHT22;11973;52.098;7.582;2023-09-18T12:46:43;25.40;90.20
23591;DHT22;11973;52.098;7.582;2023-09-18T12:49:22;25.60;89.60
23591;DHT22;11973;52.098;7.582;2023-09-18T12:51:57;25.80;89.70
23591;DHT22;11973;52.098;7.582;2023-09-18T12:54:43;25.90;88.90
23591;DHT22;11973;52.098;7.582;2023-09-18T12:57:15;26.00;88.50
23591;DHT22;11973;52.098;7.582;2023-09-18T12:59:41;26.00;88.20
23591;DHT22;11973;52.098;7.582;2023-09-18T13:02:07;26.00;87.70
23591;DHT22;11973;52.098;7.582;2023-09-18T13:04:37;26.00;87.30
23591;DHT22;11973;52.098;7.582;2023-09-18T13:09:30;25.90;86.70
23591;DHT22;11973;52.098;7.582;2023-09-18T13:11:57;25.80;86.60
23591;DHT22;11973;52.098;7.582;2023-09-18T13:14:23;25.60;86.50
23591;DHT22;11973;52.098;7.582;2023-09-18T13:16:49;25.50;86.30
23591;DHT22;11973;52.098;7.582;2023-09-18T13:19:15;25.30;85.90
23591;DHT22;11973;52.098;7.582;2023-09-18T13:21:50;25.20;85.70
23591;DHT22;11973;52.098;7.582;2023-09-18T13:24:30;25.10;85.50
23591;DHT22;11973;52.098;7.582;2023-09-18T13:26:56;25.00;85.60
23591;DHT22;11973;52.098;7.582;2023-09-18T13:29:23;24.90;85.80
23591;DHT22;11973;52.098;7.582;2023-09-18T13:31:50;24.90;85.80
23591;DHT22;11973;52.098;7.582;2023-09-18T13:34:16;24.90;85.80
23591;DHT22;11973;52.098;7.582;2023-09-18T13:36:48;25.00;85.90
23591;DHT22;11973;52.098;7.582;2023-09-18T13:39:14;25.00;85.80
23591;DHT22;11973;52.098;7.582;2023-09-18T13:41:43;25.10;85.70
23591;DHT22;11973;52.098;7.582;2023-09-18T13:44:09;25.10;85.50
23591;DHT22;11973;52.098;7.582;2023-09-18T13:46:36;25.20;85.40
23591;DHT22;11973;52.098;7.582;2023-09-18T13:49:05;25.30;85.40
23591;DHT22;11973;52.098;7.582;2023-09-18T13:51:32;25.30;85.20
23591;DHT22;11973;52.098;7.582;2023-09-18T13:53:58;25.40;85.30
23591;DHT22;11973;52.098;7.582;2023-09-18T13:56:24;25.50;85.30
23591;DHT22;11973;52.098;7.582;2023-09-18T13:58:55;25.60;84.50
23591;DHT22;11973;52.098;7.582;2023-09-18T14:01:22;25.70;84.00
23591;DHT22;11973;52.098;7.582;2023-09-18T14:03:48;25.80;83.90
23591;DHT22;11973;52.098;7.582;2023-09-18T14:06:14;25.80;83.70
23591;DHT22;11973;52.098;7.582;2023-09-18T14:08:40;25.90;83.60
23591;DHT22;11973;52.098;7.582;2023-09-18T14:11:06;26.00;83.30
23591;DHT22;11973;52.098;7.582;2023-09-18T14:13:32;26.10;82.90
23591;DHT22;11973;52.098;7.582;2023-09-18T14:15:58;26.20;82.60
23591;DHT22;11973;52.098;7.582;2023-09-18T14:18:25;26.20;82.40
23591;DHT22;11973;52.098;7.582;2023-09-18T14:20:51;26.30;82.30
23591;DHT22;11973;52.098;7.582;2023-09-18T14:23:17;26.40;82.10
23591;DHT22;11973;52.098;7.582;2023-09-18T14:25:42;26.40;81.50
23591;DHT22;11973;52.098;7.582;2023-09-18T14:28:08;26.40;81.00
23591;DHT22;11973;52.098;7.582;2023-09-18T14:30:34;26.30;80.60
23591;DHT22;11973;52.098;7.582;2023-09-18T14:33:00;26.50;81.10
23591;DHT22;11973;52.098;7.582;2023-09-18T14:35:27;26.80;81.60
23591;DHT22;11973;52.098;7.582;2023-09-18T14:37:53;27.00;80.80
23591;DHT22;11973;52.098;7.582;2023-09-18T14:40:18;27.10;80.00
23591;DHT22;11973;52.098;7.582;2023-09-18T14:42:46;27.30;80.20
23591;DHT22;11973;52.098;7.582;2023-09-18T14:45:12;27.80;80.90
23591;DHT22;11973;52.098;7.582;2023-09-18T14:47:38;28.30;81.10
23591;DHT22;11973;52.098;7.582;2023-09-18T14:50:05;28.90;80.60
23591;DHT22;11973;52.098;7.582;2023-09-18T14:52:31;29.60;80.10
23591;DHT22;11973;52.098;7.582;2023-09-18T14:54:58;30.00;78.00
23591;DHT22;11973;52.098;7.582;2023-09-18T14:57:25;30.20;76.50
23591;DHT22;11973;52.098;7.582;2023-09-18T14:59:52;30.30;74.40
23591;DHT22;11973;52.098;7.582;2023-09-18T15:02:18;30.20;72.80
23591;DHT22;11973;52.098;7.582;2023-09-18T15:04:44;29.80;72.70
23591;DHT22;11973;52.098;7.582;2023-09-18T15:07:10;29.40;71.20
23591;DHT22;11973;52.098;7.582;2023-09-18T15:09:37;29.10;70.90
23591;DHT22;11973;52.098;7.582;2023-09-18T15:12:04;28.80;70.50
23591;DHT22;11973;52.098;7.582;2023-09-18T15:14:34;28.50;70.30
23591;DHT22;11973;52.098;7.582;2023-09-18T15:16:59;28.20;69.90
23591;DHT22;11973;52.098;7.582;2023-09-18T15:19:25;27.90;69.70
23591;DHT22;11973;52.098;7.582;2023-09-18T15:21:51;27.80;69.90
23591;DHT22;11973;52.098;7.582;2023-09-18T15:24:18;27.70;69.60
23591;DHT22;11973;52.098;7.582;2023-09-18T15:26:44;27.80;69.70
23591;DHT22;11973;52.098;7.582;2023-09-18T15:29:10;27.80;69.30
23591;DHT22;11973;52.098;7.582;2023-09-18T15:31:36;27.80;69.30
23591;DHT22;11973;52.098;7.582;2023-09-18T15:34:04;28.00;69.40
23591;DHT22;11973;52.098;7.582;2023-09-18T15:36:29;28.20;69.50
23591;DHT22;11973;52.098;7.582;2023-09-18T15:38:57;28.60;69.20
23591;DHT22;11973;52.098;7.582;2023-09-18T15:41:24;28.70;68.10
23591;DHT22;11973;52.098;7.582;2023-09-18T15:43:50;28.60;67.50
23591;DHT22;11973;52.098;7.582;2023-09-18T15:46:15;28.60;67.40
23591;DHT22;11973;52.098;7.582;2023-09-18T15:48:43;29.00;67.90
23591;DHT22;11973;52.098;7.582;2023-09-18T15:51:09;29.60;67.80
23591;DHT22;11973;52.098;7.582;2023-09-18T15:53:38;30.30;66.80
23591;DHT22;11973;52.098;7.582;2023-09-18T15:56:04;30.80;65.90
23591;DHT22;11973;52.098;7.582;2023-09-18T15:58:30;31.30;65.20
23591;DHT22;11973;52.098;7.582;2023-09-18T16:00:55;31.80;64.40
23591;DHT22;11973;52.098;7.582;2023-09-18T16:03:24;32.20;63.50
23591;DHT22;11973;52.098;7.582;2023-09-18T16:05:50;32.60;63.00
23591;DHT22;11973;52.098;7.582;2023-09-18T16:08:19;32.90;62.30
23591;DHT22;11973;52.098;7.582;2023-09-18T16:10:44;33.20;62.50
23591;DHT22;11973;52.098;7.582;2023-09-18T16:13:10;33.50;61.10
23591;DHT22;11973;52.098;7.582;2023-09-18T16:15:36;33.80;60.40
23591;DHT22;11973;52.098;7.582;2023-09-18T16:18:02;33.90;59.70
23591;DHT22;11973;52.098;7.582;2023-09-18T16:20:29;34.10;59.10
23591;DHT22;11973;52.098;7.582;2023-09-18T16:22:55;34.20;58.30
23591;DHT22;11973;52.098;7.582;2023-09-18T16:25:21;34.00;57.60
23591;DHT22;11973;52.098;7.582;2023-09-18T16:27:46;33.60;56.70
23591;DHT22;11973;52.098;7.582;2023-09-18T16:30:12;33.00;56.30
23591;DHT22;11973;52.098;7.582;2023-09-18T16:32:38;32.30;56.00
23591;DHT22;11973;52.098;7.582;2023-09-18T16:35:05;31.50;56.00
23591;DHT22;11973;52.098;7.582;2023-09-18T16:37:34;30.80;55.90
23591;DHT22;11973;52.098;7.582;2023-09-18T16:40:01;30.10;56.00
23591;DHT22;11973;52.098;7.582;2023-09-18T16:42:26;29.50;56.10
23591;DHT22;11973;52.098;7.582;2023-09-18T16:44:53;28.90;56.30
23591;DHT22;11973;52.098;7.582;2023-09-18T16:47:19;28.40;56.70
23591;DHT22;11973;52.098;7.582;2023-09-18T16:49:47;27.90;56.80
23591;DHT22;11973;52.098;7.582;2023-09-18T16:52:13;27.50;57.10
23591;DHT22;11973;52.098;7.582;2023-09-18T16:54:39;27.10;57.40
23591;DHT22;11973;52.098;7.582;2023-09-18T16:57:05;26.70;57.70
23591;DHT22;11973;52.098;7.582;2023-09-18T16:59:33;26.40;58.00
23591;DHT22;11973;52.098;7.582;2023-09-18T17:01:58;26.10;58.20
23591;DHT22;11973;52.098;7.582;2023-09-18T17:04:26;25.90;58.40
23591;DHT22;11973;52.098;7.582;2023-09-18T17:06:52;25.60;58.60
23591;DHT22;11973;52.098;7.582;2023-09-18T17:09:18;25.40;58.90
23591;DHT22;11973;52.098;7.582;2023-09-18T17:11:44;25.10;59.00
23591;DHT22;11973;52.098;7.582;2023-09-18T17:14:10;24.90;59.20
23591;DHT22;11973;52.098;7.582;2023-09-18T17:16:35;24.70;59.50
23591;DHT22;11973;52.098;7.582;2023-09-18T17:19:02;24.50;59.70
23591;DHT22;11973;52.098;7.582;2023-09-18T17:21:29;24.40;60.00
23591;DHT22;11973;52.098;7.582;2023-09-18T17:23:55;24.20;60.10
23591;DHT22;11973;52.098;7.582;2023-09-18T17:26:21;24.10;60.40
23591;DHT22;11973;52.098;7.582;2023-09-18T17:28:47;24.00;60.60
23591;DHT22;11973;52.098;7.582;2023-09-18T17:31:13;23.80;60.70
23591;DHT22;11973;52.098;7.582;2023-09-18T17:33:39;23.80;61.00
23591;DHT22;11973;52.098;7.582;2023-09-18T17:36:06;23.70;61.20
23591;DHT22;11973;52.098;7.582;2023-09-18T17:38:34;23.60;61.40
23591;DHT22;11973;52.098;7.582;2023-09-18T17:41:01;23.60;61.70
23591;DHT22;11973;52.098;7.582;2023-09-18T17:43:26;23.60;62.00
23591;DHT22;11973;52.098;7.582;2023-09-18T17:45:52;23.50;62.00
23591;DHT22;11973;52.098;7.582;2023-09-18T17:48:18;23.50;62.30
23591;DHT22;11973;52.098;7.582;2023-09-18T17:50:44;23.40;62.40
23591;DHT22;11973;52.098;7.582;2023-09-18T17:53:10;23.40;63.10
23591;DHT22;11973;52.098;7.582;2023-09-18T17:55:36;22.90;63.30
23591;DHT22;11973;52.098;7.582;2023-09-18T17:58:02;22.40;63.70
23591;DHT22;11973;52.098;7.582;2023-09-18T18:00:28;21.80;64.10
23591;DHT22;11973;52.098;7.582;2023-09-18T18:02:54;21.30;65.00
23591;DHT22;11973;52.098;7.582;2023-09-18T18:05:20;20.80;65.90
23591;DHT22;11973;52.098;7.582;2023-09-18T18:07:46;20.40;67.10
23591;DHT22;11973;52.098;7.582;2023-09-18T18:10:12;20.10;67.80
23591;DHT22;11973;52.098;7.582;2023-09-18T18:12:41;19.80;68.70
23591;DHT22;11973;52.098;7.582;2023-09-18T18:15:09;19.60;70.10
23591;DHT22;11973;52.098;7.582;2023-09-18T18:17:37;19.40;71.10
23591;DHT22;11973;52.098;7.582;2023-09-18T18:20:03;19.20;72.10
23591;DHT22;11973;52.098;7.582;2023-09-18T18:22:34;19.10;73.40
23591;DHT22;11973;52.098;7.582;2023-09-18T18:25:00;19.00;74.60
23591;DHT22;11973;52.098;7.582;2023-09-18T18:27:26;18.90;75.60
23591;DHT22;11973;52.098;7.582;2023-09-18T18:29:52;18.80;76.70
23591;DHT22;11973;52.098;7.582;2023-09-18T18:32:18;18.70;77.50
23591;DHT22;11973;52.098;7.582;2023-09-18T18:34:43;18.70;78.40
23591;DHT22;11973;52.098;7.582;2023-09-18T18:37:10;18.70;79.30
23591;DHT22;11973;52.098;7.582;2023-09-18T18:39:36;18.60;80.00
23591;DHT22;11973;52.098;7.582;2023-09-18T18:42:03;18.60;80.80
23591;DHT22;11973;52.098;7.582;2023-09-18T18:44:29;18.60;81.60
23591;DHT22;11973;52.098;7.582;2023-09-18T18:46:55;18.50;82.10
23591;DHT22;11973;52.098;7.582;2023-09-18T18:49:23;18.50;82.80
23591;DHT22;11973;52.098;7.582;2023-09-18T18:51:48;18.50;83.40
23591;DHT22;11973;52.098;7.582;2023-09-18T18:54:14;18.50;84.00
23591;DHT22;11973;52.098;7.582;2023-09-18T18:56:40;18.50;84.60
23591;DHT22;11973;52.098;7.582;2023-09-18T18:59:07;18.50;85.20
23591;DHT22;11973;52.098;7.582;2023-09-18T19:01:33;18.50;86.40
23591;DHT22;11973;52.098;7.582;2023-09-18T19:04:02;18.50;86.20
23591;DHT22;11973;52.098;7.582;2023-09-18T19:06:27;18.50;86.70
23591;DHT22;11973;52.098;7.582;2023-09-18T19:08:53;18.50;87.30
23591;DHT22;11973;52.098;7.582;2023-09-18T19:11:19;18.50;87.80
23591;DHT22;11973;52.098;7.582;2023-09-18T19:13:45;18.50;88.20
23591;DHT22;11973;52.098;7.582;2023-09-18T19:16:13;18.50;88.70
23591;DHT22;11973;52.098;7.582;2023-09-18T19:18:39;18.50;89.20
23591;DHT22;11973;52.098;7.582;2023-09-18T19:21:06;18.50;89.70
23591;DHT22;11973;52.098;7.582;2023-09-18T19:23:34;18.50;90.00
23591;DHT22;11973;52.098;7.582;2023-09-18T19:26:01;18.50;90.20
23591;DHT22;11973;52.098;7.582;2023-09-18T19:28:28;18.50;90.40
23591;DHT22;11973;52.098;7.582;2023-09-18T19:30:57;18.50;90.60
23591;DHT22;11973;52.098;7.582;2023-09-18T19:33:25;18.50;90.80
23591;DHT22;11973;52.098;7.582;2023-09-18T19:35:53;18.50;91.30
23591;DHT22;11973;52.098;7.582;2023-09-18T19:38:21;18.40;91.70
23591;DHT22;11973;52.098;7.582;2023-09-18T19:40:50;18.40;92.00
23591;DHT22;11973;52.098;7.582;2023-09-18T19:43:16;18.30;92.20
23591;DHT22;11973;52.098;7.582;2023-09-18T19:45:42;18.40;92.40
23591;DHT22;11973;52.098;7.582;2023-09-18T19:48:08;18.40;92.60
23591;DHT22;11973;52.098;7.582;2023-09-18T19:50:34;18.40;92.80
23591;DHT22;11973;52.098;7.582;2023-09-18T19:53:01;18.30;93.30
23591;DHT22;11973;52.098;7.582;2023-09-18T19:55:28;18.30;93.70
23591;DHT22;11973;52.098;7.582;2023-09-18T19:57:58;18.30;94.30
23591;DHT22;11973;52.098;7.582;2023-09-18T20:00:25;18.30;94.20
23591;DHT22;11973;52.098;7.582;2023-09-18T20:02:51;18.30;94.30